Cheektowaga, NY (14227)

7:11 PM EDT en Junio 29, 2015 (GMT -0400)
Cleve Hill | | Change Station
CLOSE
Current Station
Estación meteorológica personal
Location: Cheektowaga, NY
Altura: 686 ft
Estaciones meteorológicas cercanas

Alt 686 ft 42.94 °N, 78.77 °W | Updated 1 minute ago

Mostly Cloudy
Muy nublado
73.9 ° F
Sensación térmica 77 ° F
N
1.0
Viento Variable Viento desde SSO
Gusts 5.0 mph

Hoy
Alta -- | Baja -- ° F
--% Posibilidad de precipitaciones
Ayer
Alta -- | Baja -- ° F
Precip. -- pul
5:38 AM 8:57 PM
Gibosa creciente, 95% visible
Presión 29.88 pul
Visibilidad 10.0 Millas
Nubes Baja 4000 ft
Baja 12000 ft
Nubes dispersas 22000 ft
Muy nublado 30000 ft
Índice de calor 77 ° F
Punto de rocío 57 ° F
Humedad 56%
Precipitaciones 0.00 pul
Espesor de la nieve No disponible.
UV 1 de una escala de 12
Polen 2.40 de una escala de 12
Calidad del aire No disponible.
Flu Activity Sporadic
METAR KBUF 292254Z 19007KT 10SM FEW040 FEW120 SCT220 BKN300 22/11 A2989 RMK AO2 SLP119 T02170106

More Conditions Fewer Conditions

Presión 29.88 pul
Visibilidad 10.0 Millas
Nubes Baja 4000 ft
Baja 12000 ft
Nubes dispersas 22000 ft
Muy nublado 30000 ft
Índice de calor 77 ° F
Punto de rocío 57 ° F
Humedad 56%
Precipitaciones 0.00 pul
Espesor de la nieve No disponible.
UV 1 de una escala de 12
Polen 2.40 de una escala de 12
Calidad del aire No disponible.
Flu Activity Sporadic
METAR KBUF 292254Z 19007KT 10SM FEW040 FEW120 SCT220 BKN300 22/11 A2989 RMK AO2 SLP119 T02170106

More Conditions Fewer Conditions

10-Day Weather Forecast

×

Almanac

Astronomía

Jun. 29, 2015 Salida Puesta
Hora real
Crepúsculo civil
Crepúsculo náutico
Crepúsculo astronómico
Luna
Horas de luz
Horas de luz
Tomorrow will be .
, % of the Moon is Illuminated

Extremos de hoy

Máximos del estado Bajos del estado

Community

WunderPhotos

Upload Photos

1,833,876 ¡fotos cargadas!

WunderBlogs® & News

Nearby

Calidad del aire

  Calidad del aire Índice AQ Contaminante
Not available.

Grosos de nieve

Estación Profundido Altura

Actividad de terremotos

Ciudad Distance Mag. Tiempo y dato
Magnitud mínima muestra es 2,5.

Temperaturas de aguas costeras

Lugar Temperatura

Stations

Estaciones meteorológicas cercanas

Ubicación de la estación Temp. Vientos helados Punto de rocío Humedad Viento Precip. Alt Actualizado Tipo